Time;durP1;ratioP1;P1;durP2;ratioP2;P2;SDS_P1;SDS_P2;PMS_P1;PMS_P2;Temp;Humidity;BMP_temperature;BMP_pressure;BME280_temperature;BME280_humidity;BME280_pressure;Samples;Min_cycle;Max_cycle;Signal;HPM_P1;HPM_P2
2023/07/04 00:06:37;;;;;;;;;;;18.70;99.90;;;;;;20835738;28;19917;-72
2023/07/04 00:16:38;;;;;;;;;;;18.70;99.90;;;;;;20908118;28;20496;-72
2023/07/04 00:26:39;;;;;;;;;;;18.70;99.90;;;;;;20916889;28;19962;-72
2023/07/04 00:36:39;;;;;;;;;;;18.60;99.90;;;;;;20898334;28;19913;-72
2023/07/04 00:46:43;;;;;;;;;;;18.40;99.90;;;;;;20915757;28;19916;-72
2023/07/04 00:56:43;;;;;;;;;;;18.30;99.90;;;;;;20915515;28;20294;-73
2023/07/04 01:06:49;;;;;;;;;;;18.20;99.90;;;;;;20902467;28;19917;-74
2023/07/04 01:16:50;;;;;;;;;;;18.10;99.90;;;;;;20821113;28;20427;-74
2023/07/04 01:26:51;;;;;;;;;;;18.10;99.90;;;;;;20797177;28;20018;-74
2023/07/04 01:36:52;;;;;;;;;;;18.10;99.90;;;;;;20811882;28;19916;-73
2023/07/04 01:46:53;;;;;;;;;;;18.00;99.90;;;;;;20886336;28;20011;-74
2023/07/04 01:56:54;;;;;;;;;;;17.80;99.90;;;;;;20899421;28;19939;-74
2023/07/04 02:06:56;;;;;;;;;;;17.70;99.90;;;;;;20892575;28;20339;-74
2023/07/04 02:16:57;;;;;;;;;;;17.60;99.90;;;;;;20881728;28;19913;-74
2023/07/04 02:26:57;;;;;;;;;;;17.60;99.90;;;;;;20907733;28;19924;-74
2023/07/04 02:36:59;;;;;;;;;;;17.50;99.90;;;;;;20890669;28;19962;-73
2023/07/04 02:46:59;;;;;;;;;;;17.40;99.90;;;;;;20840989;28;19917;-73
2023/07/04 02:57:01;;;;;;;;;;;17.30;99.90;;;;;;20825315;28;20470;-73
2023/07/04 03:07:02;;;;;;;;;;;17.40;99.90;;;;;;20824479;28;19953;-73
2023/07/04 03:17:03;;;;;;;;;;;17.20;99.90;;;;;;20882698;28;20409;-73
2023/07/04 03:27:04;;;;;;;;;;;16.80;99.90;;;;;;20886593;28;19948;-73
2023/07/04 03:37:06;;;;;;;;;;;16.80;99.90;;;;;;20914653;28;19956;-73
2023/07/04 03:47:07;;;;;;;;;;;16.60;99.90;;;;;;20879976;28;19920;-73
2023/07/04 03:57:08;;;;;;;;;;;16.70;99.90;;;;;;20937507;28;19917;-74
2023/07/04 04:07:10;;;;;;;;;;;16.60;99.90;;;;;;20898042;28;19921;-74
2023/07/04 04:17:11;;;;;;;;;;;16.70;99.90;;;;;;20877037;28;20011;-74
2023/07/04 04:27:13;;;;;;;;;;;16.90;99.90;;;;;;20916242;28;19948;-74
2023/07/04 04:37:13;;;;;;;;;;;16.80;99.90;;;;;;20903303;28;19913;-74
2023/07/04 04:47:14;;;;;;;;;;;16.80;99.90;;;;;;20897719;28;20394;-73
2023/07/04 04:57:15;;;;;;;;;;;16.70;99.90;;;;;;20915133;28;19917;-74
2023/07/04 05:07:16;;;;;;;;;;;16.90;99.90;;;;;;20913593;28;20310;-74
2023/07/04 05:17:16;;;;;;;;;;;16.80;99.90;;;;;;20954932;28;19943;-74
2023/07/04 05:27:17;;;;;;;;;;;17.00;99.90;;;;;;21017305;22;19966;-76
2023/07/04 05:37:18;;;;;;;;;;;17.50;99.90;;;;;;20999921;28;19913;-76
2023/07/04 05:47:18;;;;;;;;;;;18.10;99.90;;;;;;20988492;28;20015;-76
2023/07/04 05:57:19;;;;;;;;;;;18.60;99.90;;;;;;20990447;28;19978;-76
2023/07/04 06:07:19;;;;;;;;;;;18.30;99.90;;;;;;20991444;28;19924;-76
2023/07/04 06:17:20;;;;;;;;;;;18.30;99.90;;;;;;20815412;28;19919;-76
2023/07/04 06:27:21;;;;;;;;;;;18.90;99.90;;;;;;20825277;28;19917;-76
2023/07/04 06:37:21;;;;;;;;;;;19.00;99.90;;;;;;20825528;28;20008;-76
2023/07/04 06:47:22;;;;;;;;;;;19.10;99.90;;;;;;20979121;28;19923;-76
2023/07/04 06:57:23;;;;;;;;;;;19.90;99.90;;;;;;20971758;28;20370;-76
2023/07/04 07:07:23;;;;;;;;;;;19.40;99.90;;;;;;20994953;28;19921;-77
2023/07/04 07:17:24;;;;;;;;;;;20.50;99.90;;;;;;20849929;28;19917;-76
2023/07/04 07:27:25;;;;;;;;;;;20.70;99.90;;;;;;20843590;28;19917;-77
2023/07/04 07:37:25;;;;;;;;;;;21.10;99.90;;;;;;20866192;28;20390;-76
2023/07/04 07:47:26;;;;;;;;;;;21.70;99.90;;;;;;20857739;28;20023;-76
2023/07/04 07:57:27;;;;;;;;;;;21.30;99.90;;;;;;20880893;28;19935;-77
2023/07/04 08:07:27;;;;;;;;;;;22.00;99.90;;;;;;20886701;28;19963;-77
2023/07/04 08:17:28;;;;;;;;;;;22.00;99.90;;;;;;20871247;28;19913;-77
2023/07/04 08:27:28;;;;;;;;;;;22.90;99.90;;;;;;20904726;28;19952;-77
2023/07/04 08:37:29;;;;;;;;;;;23.20;99.90;;;;;;20943970;28;19913;-77
2023/07/04 08:47:31;;;;;;;;;;;22.70;99.90;;;;;;20865257;28;19917;-78
2023/07/04 08:57:37;;;;;;;;;;;23.60;99.90;;;;;;20893197;28;19920;-76
2023/07/04 09:07:38;;;;;;;;;;;24.20;99.90;;;;;;20956516;28;19986;-77
2023/07/04 09:17:43;;;;;;;;;;;24.70;99.90;;;;;;20972225;28;19913;-77
2023/07/04 09:27:44;;;;;;;;;;;23.80;99.90;;;;;;20931622;28;19921;-77
2023/07/04 09:37:58;;;;;;;;;;;24.00;99.90;;;;;;20962488;28;19913;-77
2023/07/04 09:47:59;;;;;;;;;;;23.70;99.90;;;;;;20981201;28;20326;-77
2023/07/04 09:58:28;;;;;;;;;;;23.70;99.90;;;;;;20943159;28;19913;-78
2023/07/04 10:08:29;;;;;;;;;;;23.10;99.90;;;;;;20953165;28;20001;-78
2023/07/04 10:18:31;;;;;;;;;;;22.90;99.90;;;;;;20893296;28;19913;-77
2023/07/04 10:28:32;;;;;;;;;;;23.10;99.90;;;;;;20882718;28;19943;-76
2023/07/04 10:38:38;;;;;;;;;;;23.00;99.90;;;;;;20942710;28;19959;-78
2023/07/04 10:48:39;;;;;;;;;;;22.40;99.90;;;;;;20957073;28;19917;-78
2023/07/04 10:58:42;;;;;;;;;;;22.70;99.90;;;;;;20970698;28;19959;-78
2023/07/04 11:08:43;;;;;;;;;;;23.50;99.90;;;;;;20963637;28;19924;-78
2023/07/04 11:18:58;;;;;;;;;;;24.40;99.90;;;;;;20882612;28;19913;-76
2023/07/04 11:29:06;;;;;;;;;;;24.50;99.90;;;;;;20876024;22;19924;-76
2023/07/04 11:39:16;;;;;;;;;;;25.70;99.90;;;;;;20955994;28;19928;-76
2023/07/04 11:49:18;;;;;;;;;;;25.40;99.90;;;;;;20922240;28;19917;-75
2023/07/04 11:59:20;;;;;;;;;;;25.80;99.90;;;;;;20982664;28;20389;-76
2023/07/04 12:09:50;;;;;;;;;;;26.00;99.90;;;;;;20975613;28;19927;-74
2023/07/04 12:20:00;;;;;;;;;;;26.20;99.90;;;;;;20944075;28;19967;-75
2023/07/04 12:30:02;;;;;;;;;;;26.70;99.90;;;;;;20979379;28;20416;-74
2023/07/04 12:40:04;;;;;;;;;;;26.10;99.90;;;;;;20944971;28;20003;-75
2023/07/04 12:50:05;;;;;;;;;;;27.90;99.90;;;;;;20923297;28;19916;-74
2023/07/04 13:00:09;;;;;;;;;;;27.20;99.90;;;;;;20955171;28;20429;-75
2023/07/04 13:10:18;;;;;;;;;;;28.00;99.30;;;;;;20946923;28;19960;-74
2023/07/04 13:20:20;;;;;;;;;;;26.80;99.10;;;;;;20970663;28;20374;-75
2023/07/04 13:30:28;;;;;;;;;;;26.40;99.60;;;;;;20945837;28;20333;-75
2023/07/04 13:40:29;;;;;;;;;;;25.90;99.90;;;;;;20900335;28;19917;-76
2023/07/04 13:50:32;;;;;;;;;;;26.10;99.90;;;;;;20954323;28;20466;-76
2023/07/04 14:00:33;;;;;;;;;;;26.60;99.90;;;;;;20923662;28;19921;-77
2023/07/04 14:10:34;;;;;;;;;;;26.80;99.90;;;;;;20905822;28;19924;-74
2023/07/04 14:20:36;;;;;;;;;;;26.80;99.90;;;;;;20946835;28;19924;-77
2023/07/04 14:30:41;;;;;;;;;;;27.60;99.90;;;;;;20899141;28;19916;-76
2023/07/04 14:40:41;;;;;;;;;;;27.90;99.90;;;;;;20907750;28;19936;-76
2023/07/04 14:50:42;;;;;;;;;;;27.40;99.90;;;;;;20897331;28;19917;-76
2023/07/04 15:00:42;;;;;;;;;;;27.60;99.50;;;;;;20944849;28;19966;-76
2023/07/04 15:10:44;;;;;;;;;;;27.40;99.40;;;;;;20941398;28;19944;-75
2023/07/04 15:20:45;;;;;;;;;;;26.90;99.90;;;;;;20838582;28;19959;-76
2023/07/04 15:30:47;;;;;;;;;;;26.70;99.90;;;;;;20896426;28;19917;-76
2023/07/04 15:40:52;;;;;;;;;;;26.40;99.90;;;;;;20960741;28;19916;-75
2023/07/04 15:50:55;;;;;;;;;;;26.20;99.90;;;;;;20899510;28;19917;-75
2023/07/04 16:00:56;;;;;;;;;;;26.30;99.90;;;;;;20900020;28;19951;-76
2023/07/04 16:10:58;;;;;;;;;;;25.80;99.90;;;;;;20944324;28;20008;-76
2023/07/04 16:20:59;;;;;;;;;;;25.40;99.90;;;;;;20905848;28;19920;-76
2023/07/04 16:31:04;;;;;;;;;;;25.10;99.90;;;;;;20918714;28;19916;-76
2023/07/04 16:41:12;;;;;;;;;;;25.40;99.90;;;;;;20929349;28;20367;-76
2023/07/04 16:51:13;;;;;;;;;;;25.60;99.90;;;;;;20936922;28;20298;-74
2023/07/04 17:01:14;;;;;;;;;;;25.50;99.90;;;;;;20884012;28;19912;-73
2023/07/04 17:11:14;;;;;;;;;;;25.10;99.90;;;;;;20840708;28;19943;-73
2023/07/04 17:21:15;;;;;;;;;;;25.00;99.90;;;;;;20831254;28;19963;-74
2023/07/04 17:31:16;;;;;;;;;;;24.40;99.90;;;;;;20892280;22;19960;-76
2023/07/04 17:41:16;;;;;;;;;;;24.80;99.90;;;;;;20853855;28;20478;-76
2023/07/04 17:51:19;;;;;;;;;;;24.90;99.90;;;;;;20828040;28;19928;-76
2023/07/04 18:01:21;;;;;;;;;;;25.10;99.90;;;;;;20898395;28;20244;-76
2023/07/04 18:11:23;;;;;;;;;;;26.10;99.90;;;;;;20921910;28;20441;-77
2023/07/04 18:21:25;;;;;;;;;;;27.30;99.90;;;;;;20908993;28;19916;-77
2023/07/04 18:31:27;;;;;;;;;;;28.30;98.70;;;;;;20890023;28;19924;-77
2023/07/04 18:41:38;;;;;;;;;;;27.70;99.90;;;;;;20896283;28;19939;-77
2023/07/04 18:51:40;;;;;;;;;;;24.70;99.90;;;;;;20889175;28;20070;-77
2023/07/04 19:01:43;;;;;;;;;;;23.40;99.90;;;;;;20893829;28;19913;-77
2023/07/04 19:11:44;;;;;;;;;;;22.50;99.90;;;;;;20900491;28;19917;-78
2023/07/04 19:21:46;;;;;;;;;;;21.90;99.90;;;;;;20885576;28;19917;-78
2023/07/04 19:31:50;;;;;;;;;;;21.30;99.90;;;;;;20879855;28;20329;-79
2023/07/04 19:41:50;;;;;;;;;;;20.80;99.90;;;;;;20865296;28;19914;-79
2023/07/04 19:51:51;;;;;;;;;;;20.20;99.90;;;;;;20871580;28;19928;-79
2023/07/04 20:01:52;;;;;;;;;;;19.90;99.90;;;;;;20840644;28;20371;-81
2023/07/04 20:11:52;;;;;;;;;;;19.80;99.90;;;;;;20819815;28;20011;-77
2023/07/04 20:21:54;;;;;;;;;;;19.70;99.90;;;;;;20875865;28;20397;-75
2023/07/04 20:31:54;;;;;;;;;;;18.50;99.90;;;;;;20873381;28;19924;-76
2023/07/04 20:41:56;;;;;;;;;;;18.10;99.90;;;;;;20849296;28;20383;-76
2023/07/04 20:51:57;;;;;;;;;;;18.40;99.90;;;;;;20855514;28;20085;-76
2023/07/04 21:02:02;;;;;;;;;;;17.90;99.90;;;;;;20852548;28;19934;-76
2023/07/04 21:12:03;;;;;;;;;;;17.70;99.90;;;;;;20857911;28;19921;-76
2023/07/04 21:22:03;;;;;;;;;;;17.30;99.90;;;;;;20889613;28;20451;-75
2023/07/04 21:32:04;;;;;;;;;;;16.90;99.90;;;;;;20886147;28;19924;-76
2023/07/04 21:42:05;;;;;;;;;;;16.80;99.90;;;;;;20882983;28;19924;-75
2023/07/04 21:52:06;;;;;;;;;;;16.60;99.90;;;;;;20881650;28;19932;-76
2023/07/04 22:02:07;;;;;;;;;;;16.50;99.90;;;;;;20894470;28;20401;-76
2023/07/04 22:12:08;;;;;;;;;;;16.30;99.90;;;;;;20904313;28;19917;-76
2023/07/04 22:22:08;;;;;;;;;;;16.40;99.90;;;;;;20908448;28;20318;-76
2023/07/04 22:32:09;;;;;;;;;;;16.10;99.90;;;;;;20905754;28;19917;-76
2023/07/04 22:42:10;;;;;;;;;;;15.70;99.90;;;;;;20884256;28;20286;-75
2023/07/04 22:52:10;;;;;;;;;;;15.40;99.90;;;;;;20882954;28;20004;-76
2023/07/04 23:02:12;;;;;;;;;;;15.70;99.90;;;;;;20894576;28;19963;-76
2023/07/04 23:12:13;;;;;;;;;;;16.00;99.90;;;;;;20893948;28;19920;-76
2023/07/04 23:22:14;;;;;;;;;;;16.20;99.90;;;;;;20897461;28;20046;-76
2023/07/04 23:32:14;;;;;;;;;;;16.20;99.90;;;;;;20951206;22;20015;-73
2023/07/04 23:42:15;;;;;;;;;;;16.00;99.90;;;;;;20950682;28;19999;-73
2023/07/04 23:52:15;;;;;;;;;;;16.20;99.90;;;;;;20969847;28;19943;-73
